Terminal Aerodrome Forecast
Issued by NWS

Home | Current Version | Previous Version | Text Only | Print | Product List | Glossary On
Versions: 1 2 3 4 5 6 7 8 9 10 11 12 13 14 15 16 17 18
000
FTUS41 KPBZ 231720
TAFAGC
TAF
KAGC 231720Z 2318/2418 26010KT P6SM BKN030
     FM231900 29010KT P6SM VCTS BKN035CB
     FM232300 00000KT P6SM FEW250
     FM241000 00000KT 5SM HZ FEW250=

USA.gov is the U.S. government's official web portal to all federal, state and local government web resources and services.